In Rescue
 
Open Full Screen Window  High Contrast Mode
Wind Gusting 00 knots
09
July 25, 2021 7:32 AM EDT
Present Weather: Fog
Weather Information
Wind Direction
  280 °
Wind Speed
  09 kt (10 mph)
Wind Gust
  00 kt (0 mph)
Altimeter
29.90 in
Visibility
1/2 SM
Temperature
21° C
70° F
Dewpoint
21° C
70° F
Humidity
100%
1hr Rain Fall
00.00 in.
24hr Rain Fall
02.09 in.
Sky Condition
Overcast @ 300 ft
LIFR

METAR KTTF 251132Z AUTO 28009KT 1/2SM FG OVC003 21/21 A2990 RMK AO2 T02120209

FAA Disclaimer: The data displayed is for advisory purposes only and is not to be used for flight planning or operations.